Hauptseite
METAR-TAF:

METAR-TAF

Flughäfen :

Altenburg, Deutschland

Leipzig-Altenburg Airport

Breite: 50-58N, Länge: 012-30E, Höhe: 195 m

Beobachtung

Neuester Wetterbericht von vor 17 Stunden und 6 Minuten, um 15:50 UTC
Wind 11 kt aus Südwest
Temperatur 11°C
Luftfeuchtigkeit 66%
Luftdruck 1011 hPa
Sichtweite 10 km oder mehr
keine Wolken unter 1500 m und keine Kumulonimbus oder Gewitterwolken

METAR: EDAC 261550Z 22011KT CAVOK 11/05 Q1011

Zeit: 09:56 (08:56 UTC)

Prognose

Neuester Wetterbericht von vor 18 Stunden und 56 Minuten, um 14:00 UTC
Gültige Prognose vom 26 um 15 UTC bis 26 um 24 UTC
Wind 10 kt aus Südwest
Sichtweite 10 km oder mehr
keine Wolken unter 1500 m und keine Kumulonimbus oder Gewitterwolken

TAF: EDAC 261400Z 2615/2624 22010KT CAVOK

Wetterbeobachtungen und Prognosen von mehr als 4000 Flughäfen (METAR und TAF Bericht).

Die verfügbaren Stationen werden durch gelbe und rote Markierungen auf der Karte dargestellt.

Führen Sie die Maus auf sie, um den Namen der Station zu sehen.

Darauf klicken, um die Beobachtung von Wetterbeobachtungen und Prognosen zu sehen.

Um die Karte zu ändern : klicken Sie auf den grünen Tasten mit einem schwarzen Kreuz Zum Vergrößern, auf den grünen Button mit einem Gedankenstrich zu verkleinern, oder auf die grünen Pfeile für benachbarte Karten.


METAR-TAF: